createdAt,value
2022-11-29T18:09:16.417Z,22.86
2022-11-29T18:10:20.560Z,22.1
2022-11-29T18:11:24.864Z,21.74
2022-11-29T18:12:29.965Z,21.55
2022-11-29T18:13:34.048Z,21.39
2022-11-29T18:14:38.234Z,21.35
2022-11-29T18:15:42.333Z,21.36
2022-11-29T18:16:46.917Z,21.33
2022-11-29T18:17:51.353Z,21.38
2022-11-29T18:18:55.475Z,21.36
2022-11-29T18:19:59.583Z,21.32
2022-11-29T18:21:03.726Z,21.46
2022-11-29T18:22:07.816Z,21.47
2022-11-29T18:23:11.974Z,21.52
2022-11-29T18:24:16.061Z,21.56
2022-11-29T18:25:38.494Z,21.61
2022-11-29T18:26:43.680Z,21.6
2022-11-29T18:27:47.932Z,21.61
2022-11-29T18:28:52.033Z,21.65
2022-11-29T18:29:56.157Z,21.71
2022-11-29T18:31:00.313Z,21.81
2022-11-29T18:32:04.582Z,21.78
2022-11-29T18:33:08.700Z,21.82
2022-11-29T18:34:12.845Z,21.9
2022-11-29T18:35:16.972Z,21.92
2022-11-29T18:36:21.088Z,21.93
2022-11-29T18:37:47.710Z,21.99
2022-11-29T18:39:19.157Z,22.01
2022-11-29T18:40:23.300Z,22.04
2022-11-29T18:41:27.408Z,22.04
2022-11-29T18:42:31.568Z,21.78
2022-11-29T18:43:35.681Z,22.14
2022-11-29T18:44:43.425Z,22.15
2022-11-29T18:45:48.677Z,22.17
2022-11-29T18:46:52.982Z,22.21
2022-11-29T18:47:57.090Z,22.19
2022-11-29T18:49:01.185Z,22.21
2022-11-29T18:50:05.299Z,22.22
2022-11-29T18:51:09.403Z,22.25
2022-11-29T18:52:13.515Z,22.33
2022-11-29T18:53:17.646Z,22.28
2022-11-29T18:54:21.742Z,22.28
2022-11-29T18:55:25.980Z,22.28
2022-11-29T18:56:30.075Z,22.28
2022-11-29T18:57:34.185Z,22.27
2022-11-29T18:58:38.327Z,22.27
2022-11-29T18:59:42.436Z,22.21
2022-11-29T19:00:46.540Z,22.23
2022-11-29T19:01:50.740Z,22.22
2022-11-29T19:02:55.076Z,22.19
2022-11-29T19:03:59.314Z,22.2
2022-11-29T19:05:09.603Z,22.12
2022-11-29T19:06:17.064Z,22.12
2022-11-29T19:07:21.614Z,22.11
2022-11-29T19:08:26.001Z,22.04
2022-11-29T19:09:30.109Z,22.05
2022-11-29T19:10:34.206Z,22.01
2022-11-29T19:11:38.328Z,22.03
2022-11-29T19:12:42.443Z,21.98
2022-11-29T19:13:46.568Z,22
2022-11-29T19:14:50.931Z,21.95
2022-11-29T19:15:55.952Z,21.94
2022-11-29T19:17:00.330Z,21.94
2022-11-29T19:18:04.428Z,21.92
2022-11-29T19:19:08.529Z,21.9
2022-11-29T19:20:12.631Z,21.9
2022-11-29T19:21:16.745Z,21.85
2022-11-29T19:22:20.854Z,21.86
2022-11-29T19:23:25.097Z,21.84
2022-11-29T19:24:29.226Z,21.79
2022-11-29T19:25:33.346Z,21.83
2022-11-29T19:26:37.435Z,21.82
2022-11-29T19:27:41.561Z,21.82
2022-11-29T19:28:45.662Z,21.8
2022-11-29T19:29:49.957Z,21.8
2022-11-29T19:30:54.403Z,21.74
2022-11-29T19:31:58.705Z,21.76
2022-11-29T19:33:02.889Z,21.75
2022-11-29T19:34:06.975Z,21.75
2022-11-29T19:35:11.093Z,21.72
2022-11-29T19:36:15.197Z,21.75
2022-11-29T19:37:19.304Z,21.75
2022-11-29T19:38:23.530Z,21.73
2022-11-29T19:39:27.657Z,21.69
2022-11-29T19:40:31.765Z,21.33
2022-11-29T19:41:35.901Z,21.7
2022-11-29T19:42:39.993Z,21.69
2022-11-29T19:43:44.123Z,21.68
2022-11-29T19:45:15.726Z,21.66
2022-11-29T19:46:22.996Z,21.63
2022-11-29T19:47:27.281Z,21.66
2022-11-29T19:48:31.402Z,21.65
2022-11-29T19:49:35.514Z,21.65
2022-11-29T19:50:39.616Z,21.61
2022-11-29T19:51:43.754Z,21.61
2022-11-29T19:52:47.855Z,21.64
2022-11-29T19:53:51.976Z,21.64
2022-11-29T19:54:56.078Z,21.63
2022-11-29T19:56:00.196Z,21.62
2022-11-29T19:57:04.300Z,21.61
2022-11-29T19:58:08.411Z,21.61
2022-11-29T19:59:12.544Z,21.6
2022-11-29T20:00:16.804Z,21.57
2022-11-29T20:01:21.098Z,21.6
2022-11-29T20:02:25.653Z,21.59
2022-11-29T20:03:30.200Z,21.6
2022-11-29T20:04:34.330Z,21.59
2022-11-29T20:05:38.445Z,21.58
2022-11-29T20:06:42.543Z,21.57
2022-11-29T20:07:46.732Z,21.58
2022-11-29T20:08:51.027Z,21.57
2022-11-29T20:09:55.145Z,21.56
2022-11-29T20:10:59.291Z,21.56
2022-11-29T20:12:03.416Z,21.56
2022-11-29T20:13:07.579Z,21.55
2022-11-29T20:14:11.682Z,21.55
2022-11-29T20:15:15.784Z,21.55
2022-11-29T20:16:19.981Z,21.54
2022-11-29T20:17:24.375Z,21.51
2022-11-29T20:18:28.502Z,21.53
2022-11-29T20:19:32.605Z,21.52
2022-11-29T20:20:36.753Z,21.52
2022-11-29T20:21:40.879Z,21.52
2022-11-29T20:22:45.003Z,21.51
2022-11-29T20:23:49.117Z,21.51
2022-11-29T20:24:53.210Z,21.51
2022-11-29T20:25:57.327Z,21.5
2022-11-29T20:27:01.433Z,21.5
2022-11-29T20:28:05.530Z,21.45
2022-11-29T20:29:09.632Z,21.48
2022-11-29T20:30:13.736Z,21.48
2022-11-29T20:31:17.984Z,21.47
2022-11-29T20:32:22.366Z,21.4
2022-11-29T20:33:26.446Z,21.47
2022-11-29T20:34:30.539Z,21.47
2022-11-29T20:35:34.666Z,21.47
2022-11-29T20:36:38.763Z,21.47
2022-11-29T20:37:42.884Z,21.46
2022-11-29T20:38:46.976Z,21.46
2022-11-29T20:39:51.069Z,21.46
2022-11-29T20:40:58.205Z,21.43
2022-11-29T20:42:06.496Z,21.45
2022-11-29T20:43:10.609Z,21.43
2022-11-29T20:44:14.745Z,21.43
2022-11-29T20:45:18.848Z,21.42
2022-11-29T20:46:23.007Z,21.42
2022-11-29T20:47:27.269Z,21.41
2022-11-29T20:48:31.367Z,21.41
2022-11-29T20:49:35.594Z,21.4
2022-11-29T20:50:39.705Z,21.36
2022-11-29T20:51:43.794Z,21.35
2022-11-29T20:52:47.914Z,21.37
2022-11-29T20:53:52.010Z,21.34
2022-11-29T20:54:56.133Z,21.33
2022-11-29T20:56:00.220Z,21.33
2022-11-29T20:57:04.331Z,21.33
2022-11-29T20:58:08.456Z,21.32
2022-11-29T20:59:12.547Z,21.31
2022-11-29T21:00:16.719Z,21.34
2022-11-29T21:01:20.976Z,21.35
2022-11-29T21:02:25.258Z,21.31
2022-11-29T21:03:29.406Z,21.32
2022-11-29T21:04:33.732Z,21.35
2022-11-29T21:05:37.847Z,21.35
2022-11-29T21:06:41.965Z,21.36
2022-11-29T21:07:46.139Z,21.33
2022-11-29T21:08:50.516Z,21.33
2022-11-29T21:09:59.567Z,21.35
2022-11-29T21:11:05.423Z,21.34
2022-11-29T21:12:09.539Z,21.33
2022-11-29T21:13:13.649Z,21.34
2022-11-29T21:14:17.790Z,21.32
2022-11-29T21:15:21.889Z,21.29
2022-11-29T21:16:26.034Z,21.29
2022-11-29T21:17:33.604Z,21.29
2022-11-29T21:18:37.927Z,21.32
2022-11-29T21:19:42.070Z,21.32
2022-11-29T21:20:46.172Z,21.29
2022-11-29T21:21:50.260Z,21.31
2022-11-29T21:22:54.350Z,21.31
2022-11-29T21:23:58.435Z,21.32
2022-11-29T21:25:02.548Z,21.32
2022-11-29T21:26:06.729Z,21.3
2022-11-29T21:27:10.862Z,21.3
2022-11-29T21:28:14.961Z,21.3
2022-11-29T21:29:19.062Z,21.3
2022-11-29T21:30:23.185Z,21.3
2022-11-29T21:31:27.342Z,21.26
2022-11-29T21:32:31.701Z,21.29
2022-11-29T21:33:35.796Z,21.25
2022-11-29T21:34:39.901Z,21.28
2022-11-29T21:35:43.995Z,21.27
2022-11-29T21:36:48.085Z,21.26
2022-11-29T21:37:52.194Z,21.26
2022-11-29T21:38:57.881Z,21.26
2022-11-29T21:40:08.192Z,21.26
2022-11-29T21:41:12.318Z,21.26
2022-11-29T21:42:16.418Z,21.25
2022-11-29T21:43:20.739Z,21.21
2022-11-29T21:45:14.772Z,21.24
2022-11-29T21:46:19.662Z,21.2
2022-11-29T21:47:23.943Z,21.16
2022-11-29T21:48:28.039Z,21.22
2022-11-29T21:49:32.147Z,21.18
2022-11-29T21:50:36.258Z,21.18
2022-11-29T21:51:40.352Z,21.21
2022-11-29T21:52:44.458Z,21.18
2022-11-29T21:53:48.540Z,21.18
2022-11-29T21:54:52.681Z,21.21
2022-11-29T21:55:56.815Z,21.2
2022-11-29T21:57:00.936Z,21.2
2022-11-29T21:58:05.072Z,21.2
2022-11-29T21:59:09.185Z,21.17
2022-11-29T22:00:13.290Z,21.19
2022-11-29T22:01:17.455Z,21.18
2022-11-29T22:02:22.146Z,21.13
2022-11-29T22:03:26.608Z,21.17
2022-11-29T22:04:30.711Z,21.13
2022-11-29T22:05:34.804Z,21.17
2022-11-29T22:06:38.908Z,21.17
2022-11-29T22:07:43.070Z,21.17
2022-11-29T22:08:47.351Z,21.15
2022-11-29T22:09:51.517Z,21.14
2022-11-29T22:10:55.617Z,21.14
2022-11-29T22:11:59.728Z,21.1
2022-11-29T22:13:36.039Z,21.13
2022-11-29T22:14:40.146Z,21.09
2022-11-29T22:15:44.357Z,21.12
2022-11-29T22:16:48.640Z,21.09
2022-11-29T22:17:52.753Z,21.09
2022-11-29T22:18:56.883Z,21.12
2022-11-29T22:20:00.991Z,21.11
2022-11-29T22:21:05.085Z,21.11
2022-11-29T22:22:09.210Z,21.11
2022-11-29T22:23:13.335Z,21.08
2022-11-29T22:24:17.459Z,21.08
2022-11-29T22:25:21.589Z,21.11
2022-11-29T22:26:25.697Z,21.11
2022-11-29T22:27:29.808Z,21.11
2022-11-29T22:28:33.914Z,21.1
2022-11-29T22:29:38.023Z,21.1
2022-11-29T22:30:42.126Z,21.08
2022-11-29T22:31:46.290Z,21.07
2022-11-29T22:32:50.615Z,21.03
2022-11-29T22:33:54.730Z,21.08
2022-11-29T22:34:58.938Z,21.08
2022-11-29T22:36:03.041Z,21.08
2022-11-29T22:37:07.266Z,21.07
2022-11-29T22:38:11.361Z,21.06
2022-11-29T22:39:15.457Z,21.06
2022-11-29T22:40:19.559Z,21.06
2022-11-29T22:41:23.658Z,21.05
2022-11-29T22:42:27.766Z,21.01
2022-11-29T22:43:31.874Z,21.04
2022-11-29T22:44:35.966Z,21.04
2022-11-29T22:45:40.071Z,21.03
2022-11-29T22:46:44.218Z,21.01
2022-11-29T22:47:48.506Z,21
2022-11-29T22:48:52.602Z,21.01
2022-11-29T22:49:56.725Z,20.98
2022-11-29T22:51:00.835Z,21.01
2022-11-29T22:52:04.918Z,20.97
2022-11-29T22:53:09.042Z,21
2022-11-29T22:54:13.140Z,20.97
2022-11-29T22:55:17.227Z,21
2022-11-29T22:56:21.385Z,20.96
2022-11-29T22:57:25.502Z,20.99
2022-11-29T22:58:29.583Z,20.99
2022-11-29T22:59:33.714Z,20.99
2022-11-29T23:00:37.855Z,20.97
2022-11-29T23:01:42.244Z,20.98
2022-11-29T23:02:46.640Z,20.97
2022-11-29T23:03:50.801Z,20.97
2022-11-29T23:04:54.944Z,20.96
2022-11-29T23:05:59.046Z,20.97
2022-11-29T23:07:03.161Z,20.96
2022-11-29T23:08:07.264Z,20.96
2022-11-29T23:09:11.363Z,20.95
2022-11-29T23:10:15.488Z,20.96
2022-11-29T23:11:19.581Z,20.91
2022-11-29T23:12:23.694Z,20.94
2022-11-29T23:13:27.773Z,20.94
2022-11-29T23:14:31.874Z,20.91
2022-11-29T23:15:35.976Z,20.94
2022-11-29T23:16:40.134Z,20.93
2022-11-29T23:17:44.506Z,20.93
2022-11-29T23:18:48.616Z,20.9
2022-11-29T23:19:52.719Z,20.93
2022-11-29T23:20:56.820Z,20.88
2022-11-29T23:22:00.917Z,20.91
2022-11-29T23:23:05.021Z,20.91
2022-11-29T23:24:09.105Z,20.91
2022-11-29T23:25:13.214Z,20.91
2022-11-29T23:26:17.319Z,20.9
2022-11-29T23:27:21.519Z,20.89
2022-11-29T23:28:25.643Z,20.86
2022-11-29T23:29:29.726Z,20.9
2022-11-29T23:30:33.829Z,20.9
2022-11-29T23:31:38.042Z,20.88
2022-11-29T23:32:42.423Z,20.87
2022-11-29T23:33:46.550Z,20.85
2022-11-29T23:34:50.663Z,20.84
2022-11-29T23:35:54.804Z,20.84
2022-11-29T23:36:58.910Z,20.88
2022-11-29T23:38:03.014Z,20.84
2022-11-29T23:39:07.152Z,20.86
2022-11-29T23:40:11.275Z,20.86
2022-11-29T23:41:15.369Z,20.87
2022-11-29T23:42:19.466Z,20.85
2022-11-29T23:43:23.563Z,20.86
2022-11-29T23:44:27.689Z,20.82
2022-11-29T23:45:31.911Z,20.82
2022-11-29T23:46:36.137Z,20.84
2022-11-29T23:47:40.231Z,20.8
2022-11-29T23:48:44.320Z,20.83
2022-11-29T23:49:48.433Z,20.83
2022-11-29T23:50:52.531Z,20.84
2022-11-29T23:51:56.622Z,20.83
2022-11-29T23:53:00.704Z,20.83
2022-11-29T23:54:04.806Z,20.82
2022-11-29T23:55:08.928Z,20.83
2022-11-29T23:56:13.022Z,20.83
2022-11-29T23:57:17.124Z,20.82
2022-11-29T23:58:21.225Z,20.81
2022-11-29T23:59:25.331Z,20.8
